createdAt,value
2018-05-29T00:00:00.732Z,14.95
2018-05-29T00:02:28.364Z,14.94
2018-05-29T00:04:56.430Z,14.89
2018-05-29T00:07:24.883Z,14.89
2018-05-29T00:09:53.951Z,14.89
2018-05-29T00:12:22.022Z,14.92
2018-05-29T00:14:50.156Z,14.94
2018-05-29T00:17:18.560Z,14.92
2018-05-29T00:19:46.471Z,14.94
2018-05-29T00:22:14.079Z,14.93
2018-05-29T00:24:42.669Z,14.92
2018-05-29T00:27:10.741Z,14.92
2018-05-29T00:29:38.456Z,14.89
2018-05-29T00:32:06.047Z,14.84
2018-05-29T00:34:33.625Z,14.82
2018-05-29T00:37:01.967Z,14.80
2018-05-29T00:39:29.568Z,14.77
2018-05-29T00:41:57.145Z,14.74
2018-05-29T00:44:25.022Z,14.70
2018-05-29T00:46:52.744Z,14.64
2018-05-29T00:49:20.339Z,14.58
2018-05-29T00:51:48.411Z,14.54
2018-05-29T00:54:16.660Z,14.52
2018-05-29T00:56:44.896Z,14.50
2018-05-29T00:59:12.472Z,14.53
2018-05-29T01:01:40.031Z,14.54
2018-05-29T01:04:07.618Z,14.52
2018-05-29T01:06:35.611Z,14.50
2018-05-29T01:09:03.528Z,14.49
2018-05-29T01:11:31.735Z,14.49
2018-05-29T01:13:59.845Z,14.47
2018-05-29T01:16:28.139Z,14.47
2018-05-29T01:18:56.279Z,14.44
2018-05-29T01:21:24.090Z,14.43
2018-05-29T01:23:51.722Z,14.39
2018-05-29T01:26:20.237Z,14.36
2018-05-29T01:28:47.998Z,14.34
2018-05-29T01:31:16.660Z,14.32
2018-05-29T01:33:44.954Z,14.29
2018-05-29T01:36:12.514Z,14.23
2018-05-29T01:38:40.593Z,14.20
2018-05-29T01:41:08.135Z,14.18
2018-05-29T01:43:35.696Z,14.16
2018-05-29T01:46:03.323Z,14.13
2018-05-29T01:48:30.879Z,14.09
2018-05-29T01:51:00.308Z,14.05
2018-05-29T01:53:28.686Z,14.00
2018-05-29T01:55:56.227Z,13.94
2018-05-29T01:58:24.473Z,13.92
2018-05-29T02:00:52.158Z,13.91
2018-05-29T02:03:19.728Z,13.89
2018-05-29T02:05:48.517Z,13.87
2018-05-29T02:08:16.247Z,13.84
2018-05-29T02:10:44.310Z,13.83
2018-05-29T02:13:12.447Z,13.81
2018-05-29T02:15:40.840Z,13.80
2018-05-29T02:18:08.403Z,13.79
2018-05-29T02:25:04.010Z,13.73
2018-05-29T02:27:32.359Z,13.72
2018-05-29T02:29:59.925Z,13.68
2018-05-29T02:32:28.012Z,13.66
2018-05-29T02:34:55.564Z,13.65
2018-05-29T02:37:23.645Z,13.63
2018-05-29T02:39:51.183Z,13.64
2018-05-29T02:42:18.765Z,13.65
2018-05-29T02:44:46.856Z,13.66
2018-05-29T02:47:14.608Z,13.67
2018-05-29T02:49:42.156Z,13.68
2018-05-29T02:52:10.430Z,13.70
2018-05-29T02:54:37.987Z,13.76
2018-05-29T02:57:05.536Z,13.80
2018-05-29T02:59:33.607Z,13.83
2018-05-29T03:02:01.168Z,13.88
2018-05-29T03:04:28.755Z,13.91
2018-05-29T03:06:57.076Z,13.96
2018-05-29T03:09:25.506Z,14.01
2018-05-29T03:11:53.703Z,14.08
2018-05-29T03:14:21.312Z,14.18
2018-05-29T03:16:49.480Z,14.27
2018-05-29T03:19:17.632Z,14.37
2018-05-29T03:21:45.280Z,14.74
2018-05-29T03:24:13.930Z,15.30
2018-05-29T03:26:41.939Z,15.90
2018-05-29T03:29:09.524Z,16.45
2018-05-29T03:31:37.874Z,17.00
2018-05-29T03:34:06.120Z,17.56
2018-05-29T03:36:33.845Z,18.12
2018-05-29T03:39:02.233Z,18.61
2018-05-29T03:41:29.838Z,19.15
2018-05-29T03:43:57.422Z,19.65
2018-05-29T03:46:25.014Z,20.12
2018-05-29T03:48:54.433Z,20.48
2018-05-29T03:51:22.624Z,20.76
2018-05-29T03:53:50.901Z,20.95
2018-05-29T03:56:18.483Z,21.27
2018-05-29T03:58:46.825Z,21.60
2018-05-29T04:01:14.399Z,21.76
2018-05-29T04:03:42.221Z,21.88
2018-05-29T04:06:10.877Z,21.99
2018-05-29T04:08:39.217Z,21.91
2018-05-29T04:11:07.404Z,21.71
2018-05-29T04:13:35.196Z,21.38
2018-05-29T04:16:03.374Z,21.02
2018-05-29T04:18:31.607Z,20.78
2018-05-29T04:20:59.176Z,20.51
2018-05-29T04:23:26.793Z,20.28
2018-05-29T04:25:55.830Z,20.02
2018-05-29T04:28:23.748Z,19.80
2018-05-29T04:30:51.486Z,19.65
2018-05-29T04:33:19.743Z,19.56
2018-05-29T04:35:47.862Z,19.40
2018-05-29T04:38:18.507Z,19.31
2018-05-29T04:40:46.555Z,19.27
2018-05-29T04:43:14.241Z,19.23
2018-05-29T04:45:42.328Z,19.27
2018-05-29T04:48:10.567Z,19.22
2018-05-29T04:50:38.871Z,19.26
2018-05-29T04:53:07.036Z,19.15
2018-05-29T04:55:34.605Z,19.05
2018-05-29T04:58:02.187Z,19.04
2018-05-29T05:00:30.599Z,19.04
2018-05-29T05:02:58.224Z,19.11
2018-05-29T05:05:26.941Z,19.15
2018-05-29T05:07:54.814Z,19.16
2018-05-29T05:10:23.540Z,19.12
2018-05-29T05:12:51.775Z,19.15
2018-05-29T05:15:19.970Z,19.20
2018-05-29T05:17:48.523Z,19.32
2018-05-29T05:20:17.085Z,19.41
2018-05-29T05:22:46.652Z,19.52
2018-05-29T05:25:15.530Z,19.57
2018-05-29T05:27:43.174Z,19.57
2018-05-29T05:30:10.881Z,19.50
2018-05-29T05:32:40.385Z,19.49
2018-05-29T05:35:08.358Z,19.48
2018-05-29T05:37:36.666Z,19.58
2018-05-29T05:40:04.254Z,19.59
2018-05-29T05:42:32.298Z,19.58
2018-05-29T05:45:00.666Z,19.70
2018-05-29T05:47:28.432Z,19.87
2018-05-29T05:49:56.136Z,19.98
2018-05-29T05:52:24.950Z,20.15
2018-05-29T05:54:52.573Z,20.27
2018-05-29T05:57:20.152Z,20.43
2018-05-29T05:59:48.588Z,20.62
2018-05-29T06:02:16.408Z,20.77
2018-05-29T06:04:43.963Z,20.89
2018-05-29T06:07:12.525Z,21.05
2018-05-29T06:09:41.005Z,21.08
2018-05-29T06:12:09.132Z,21.08
2018-05-29T06:14:37.562Z,21.16
2018-05-29T06:17:05.136Z,21.21
2018-05-29T06:19:32.719Z,21.27
2018-05-29T06:22:00.343Z,21.36
2018-05-29T06:24:29.941Z,21.45
2018-05-29T06:26:58.240Z,21.52
2018-05-29T06:29:26.469Z,21.62
2018-05-29T06:31:54.160Z,21.69
2018-05-29T06:34:22.358Z,21.77
2018-05-29T06:36:50.595Z,21.83
2018-05-29T06:39:18.179Z,21.95
2018-05-29T06:41:46.701Z,22.09
2018-05-29T06:44:14.266Z,22.18
2018-05-29T06:46:41.830Z,22.34
2018-05-29T06:49:09.385Z,22.53
2018-05-29T06:51:37.416Z,22.56
2018-05-29T06:54:05.016Z,22.54
2018-05-29T06:56:32.580Z,22.67
2018-05-29T06:59:00.870Z,22.82
2018-05-29T07:01:28.442Z,22.91
2018-05-29T07:03:55.992Z,23.01
2018-05-29T07:06:25.174Z,23.11
2018-05-29T07:08:52.907Z,23.21
2018-05-29T07:11:20.850Z,23.26
2018-05-29T07:13:48.536Z,23.34
2018-05-29T07:16:16.960Z,23.44
2018-05-29T07:18:44.522Z,23.47
2018-05-29T07:21:12.058Z,23.53
2018-05-29T07:23:39.675Z,23.60
2018-05-29T07:26:08.065Z,23.66
2018-05-29T07:28:35.691Z,23.74
2018-05-29T07:31:03.269Z,23.70
2018-05-29T07:33:31.505Z,23.72
2018-05-29T07:35:59.079Z,23.79
2018-05-29T07:38:27.160Z,23.83
2018-05-29T07:40:55.375Z,23.84
2018-05-29T07:43:23.118Z,23.82
2018-05-29T07:45:50.660Z,23.83
2018-05-29T07:48:18.241Z,23.88
2018-05-29T07:50:47.364Z,23.98
2018-05-29T07:53:15.600Z,24.07
2018-05-29T07:55:43.279Z,24.18
2018-05-29T07:58:10.872Z,24.18
2018-05-29T08:00:39.321Z,24.35
2018-05-29T08:03:06.914Z,24.42
2018-05-29T08:05:35.425Z,24.43
2018-05-29T08:08:03.032Z,24.46
2018-05-29T08:10:31.385Z,24.51
2018-05-29T08:12:58.958Z,24.50
2018-05-29T08:15:27.066Z,24.47
2018-05-29T08:17:54.628Z,24.52
2018-05-29T08:20:22.372Z,24.48
2018-05-29T08:22:49.958Z,24.58
2018-05-29T08:25:18.820Z,24.75
2018-05-29T08:27:46.740Z,24.79
2018-05-29T08:30:14.299Z,24.87
2018-05-29T08:32:42.423Z,25.02
2018-05-29T08:35:09.983Z,25.13
2018-05-29T08:37:38.009Z,25.32
2018-05-29T08:40:05.574Z,25.43
2018-05-29T08:42:33.156Z,25.51
2018-05-29T08:45:00.717Z,25.63
2018-05-29T08:47:28.274Z,25.75
2018-05-29T08:49:55.827Z,25.85
2018-05-29T08:52:24.416Z,25.94
2018-05-29T08:54:51.952Z,26.08
2018-05-29T08:57:19.508Z,26.12
2018-05-29T08:59:47.981Z,26.10
2018-05-29T09:02:15.567Z,26.08
2018-05-29T09:04:43.149Z,26.11
2018-05-29T09:07:11.275Z,26.15
2018-05-29T09:09:39.395Z,26.26
2018-05-29T09:12:06.939Z,26.35
2018-05-29T09:14:35.272Z,26.52
2018-05-29T09:17:02.881Z,26.60
2018-05-29T09:19:30.561Z,26.72
2018-05-29T09:21:58.128Z,26.77
2018-05-29T09:24:26.286Z,26.85
2018-05-29T09:26:54.611Z,27.01
2018-05-29T09:29:22.329Z,27.13
2018-05-29T09:31:50.045Z,27.26
2018-05-29T09:34:18.126Z,27.23
2018-05-29T09:36:46.625Z,27.32
2018-05-29T09:39:14.178Z,27.38
2018-05-29T09:41:41.972Z,27.45
2018-05-29T09:44:09.610Z,27.50
2018-05-29T09:46:37.521Z,27.55
2018-05-29T09:49:05.164Z,27.68
2018-05-29T09:51:33.448Z,27.86
2018-05-29T09:54:00.997Z,28.03
2018-05-29T09:56:28.584Z,28.09
2018-05-29T09:58:56.860Z,28.12
2018-05-29T10:01:24.631Z,28.31
2018-05-29T10:03:52.342Z,28.42
2018-05-29T10:06:20.669Z,28.53
2018-05-29T10:08:48.325Z,28.67
2018-05-29T10:11:16.849Z,28.72
2018-05-29T10:13:44.420Z,28.79
2018-05-29T10:16:12.497Z,28.82
2018-05-29T10:18:40.050Z,28.85
2018-05-29T10:21:07.720Z,28.96
2018-05-29T10:23:35.308Z,29.09
2018-05-29T10:26:03.441Z,29.22
2018-05-29T10:28:37.054Z,29.38
2018-05-29T10:31:04.837Z,29.46
2018-05-29T10:33:32.974Z,29.41
2018-05-29T10:36:00.571Z,29.48
2018-05-29T10:38:28.999Z,29.66
2018-05-29T10:40:56.715Z,29.85
2018-05-29T10:43:24.333Z,29.95
2018-05-29T10:45:51.887Z,29.92
2018-05-29T10:48:19.547Z,29.95
2018-05-29T10:50:48.748Z,30.05
2018-05-29T10:53:17.525Z,30.08
2018-05-29T10:55:45.096Z,30.11
2018-05-29T10:58:12.648Z,30.08
2018-05-29T11:00:40.879Z,30.01
2018-05-29T11:03:08.417Z,29.93
2018-05-29T11:05:36.888Z,29.75
2018-05-29T11:08:04.483Z,29.59
2018-05-29T11:10:32.615Z,29.56
2018-05-29T11:13:00.164Z,29.50
2018-05-29T11:15:28.369Z,29.27
2018-05-29T11:17:55.932Z,29.11
2018-05-29T11:20:23.765Z,28.99
2018-05-29T11:22:51.447Z,29.04
2018-05-29T11:25:19.623Z,29.01
2018-05-29T11:27:47.923Z,29.05
2018-05-29T11:30:16.351Z,29.15
2018-05-29T11:32:44.777Z,29.21
2018-05-29T11:35:12.406Z,29.39
2018-05-29T11:37:40.497Z,29.47
2018-05-29T11:40:08.074Z,29.37
2018-05-29T11:42:36.455Z,29.42
2018-05-29T11:45:04.049Z,29.39
2018-05-29T11:47:31.619Z,29.39
2018-05-29T11:49:59.219Z,29.38
2018-05-29T11:52:27.655Z,29.28
2018-05-29T11:54:55.291Z,29.26
2018-05-29T11:57:23.104Z,29.31
2018-05-29T11:59:51.136Z,29.33
2018-05-29T12:02:18.711Z,29.45
2018-05-29T12:04:46.768Z,29.48
2018-05-29T12:07:14.979Z,29.34
2018-05-29T12:09:43.039Z,29.35
2018-05-29T12:12:22.528Z,29.34
2018-05-29T12:14:50.961Z,29.38
2018-05-29T12:17:18.529Z,29.45
2018-05-29T12:19:46.636Z,29.48
2018-05-29T12:22:14.262Z,29.53
2018-05-29T12:24:42.534Z,29.56
2018-05-29T12:27:10.766Z,29.58
2018-05-29T12:29:38.327Z,29.58
2018-05-29T12:32:06.477Z,29.53
2018-05-29T12:34:34.407Z,29.46
2018-05-29T12:37:02.736Z,29.40
2018-05-29T12:39:30.611Z,29.37
2018-05-29T12:41:58.176Z,29.41
2018-05-29T12:44:25.802Z,29.41
2018-05-29T12:46:53.589Z,29.41
2018-05-29T12:49:21.149Z,29.43
2018-05-29T12:51:49.344Z,29.47
2018-05-29T12:54:17.321Z,29.54
2018-05-29T12:56:44.879Z,29.53
2018-05-29T12:59:13.139Z,29.49
2018-05-29T13:01:40.723Z,29.42
2018-05-29T13:04:08.380Z,29.34
2018-05-29T13:06:36.240Z,29.34
2018-05-29T13:09:04.527Z,29.44
2018-05-29T13:11:32.645Z,29.60
2018-05-29T13:14:00.207Z,29.68
2018-05-29T13:16:28.321Z,29.69
2018-05-29T13:18:56.112Z,29.73
2018-05-29T13:21:23.844Z,29.72
2018-05-29T13:23:52.095Z,29.73
2018-05-29T13:26:20.359Z,29.78
2018-05-29T13:28:47.916Z,29.76
2018-05-29T13:31:15.671Z,29.74
2018-05-29T13:33:43.824Z,29.63
2018-05-29T13:36:11.555Z,29.62
2018-05-29T13:38:39.635Z,29.67
2018-05-29T13:41:07.359Z,29.75
2018-05-29T13:43:34.928Z,29.75
2018-05-29T13:46:02.712Z,29.78
2018-05-29T13:48:30.271Z,29.82
2018-05-29T13:50:58.655Z,29.79
2018-05-29T13:53:26.792Z,29.77
2018-05-29T13:55:54.838Z,29.75
2018-05-29T13:58:23.149Z,29.84
2018-05-29T14:00:51.144Z,29.88
2018-05-29T14:03:18.732Z,29.85
2018-05-29T14:05:46.987Z,29.85
2018-05-29T14:08:14.596Z,29.87
2018-05-29T14:10:42.641Z,29.86
2018-05-29T14:13:10.585Z,29.89
2018-05-29T14:15:38.985Z,29.93
2018-05-29T14:18:06.759Z,29.94
2018-05-29T14:20:34.305Z,29.93
2018-05-29T14:23:02.808Z,29.85
2018-05-29T14:25:31.347Z,29.76
2018-05-29T14:27:58.945Z,29.64
2018-05-29T14:30:26.532Z,29.58
2018-05-29T14:32:54.719Z,29.51
2018-05-29T14:35:22.404Z,29.56
2018-05-29T14:37:50.284Z,29.66
2018-05-29T14:40:19.030Z,29.70
2018-05-29T14:42:46.922Z,29.76
2018-05-29T14:45:14.579Z,29.72
2018-05-29T14:47:42.142Z,29.63
2018-05-29T14:50:09.748Z,29.68
2018-05-29T14:52:38.478Z,29.73
2018-05-29T14:55:06.025Z,29.73
2018-05-29T14:57:33.692Z,29.75
2018-05-29T15:00:02.116Z,29.69
2018-05-29T15:02:29.700Z,29.56
2018-05-29T15:04:57.978Z,29.56
2018-05-29T15:07:25.543Z,29.66
2018-05-29T15:09:53.700Z,29.72
2018-05-29T15:12:21.267Z,29.78
2018-05-29T15:14:49.262Z,29.83
2018-05-29T15:17:16.865Z,29.92
2018-05-29T15:19:45.170Z,30.05
2018-05-29T15:22:12.768Z,30.27
2018-05-29T15:24:40.829Z,30.63
2018-05-29T15:27:08.952Z,31.18
2018-05-29T15:29:36.843Z,31.93
2018-05-29T15:32:05.192Z,32.68
2018-05-29T15:34:32.751Z,33.22
2018-05-29T15:37:00.731Z,33.82
2018-05-29T15:39:28.268Z,34.32
2018-05-29T15:41:55.799Z,34.80
2018-05-29T15:44:23.662Z,35.23
2018-05-29T15:46:51.219Z,35.63
2018-05-29T15:49:18.756Z,36.18
2018-05-29T15:51:47.392Z,36.49
2018-05-29T15:54:14.931Z,36.73
2018-05-29T15:56:42.485Z,36.89
2018-05-29T15:59:10.786Z,36.99
2018-05-29T16:01:38.426Z,36.82
2018-05-29T16:04:05.972Z,36.58
2018-05-29T16:06:34.030Z,36.42
2018-05-29T16:09:01.578Z,36.72
2018-05-29T16:11:29.756Z,36.78
2018-05-29T16:13:57.325Z,36.69
2018-05-29T16:16:25.286Z,36.44
2018-05-29T16:18:53.665Z,36.39
2018-05-29T16:21:21.199Z,36.29
2018-05-29T16:23:49.347Z,36.19
2018-05-29T16:26:17.976Z,36.12
2018-05-29T16:28:45.624Z,36.06
2018-05-29T16:31:13.206Z,35.81
2018-05-29T16:33:42.560Z,35.64
2018-05-29T16:36:10.136Z,35.53
2018-05-29T16:38:38.185Z,35.59
2018-05-29T16:41:05.799Z,35.57
2018-05-29T16:43:33.363Z,35.94
2018-05-29T16:46:01.010Z,36.18
2018-05-29T16:48:28.570Z,36.10
2018-05-29T16:50:56.871Z,35.90
2018-05-29T16:53:25.081Z,35.71
2018-05-29T16:55:52.899Z,35.47
2018-05-29T16:58:20.446Z,35.49
2018-05-29T17:00:48.494Z,35.56
2018-05-29T17:03:16.491Z,35.82
2018-05-29T17:05:44.791Z,36.02
2018-05-29T17:08:12.327Z,36.21
2018-05-29T17:10:40.578Z,36.05
2018-05-29T17:13:08.135Z,36.02
2018-05-29T17:15:36.211Z,35.98
2018-05-29T17:18:03.799Z,36.12
2018-05-29T17:20:31.361Z,36.20
2018-05-29T17:22:58.930Z,36.49
2018-05-29T17:25:27.294Z,36.73
2018-05-29T17:27:54.827Z,36.83
2018-05-29T17:30:22.499Z,36.73
2018-05-29T17:32:50.720Z,36.63
2018-05-29T17:35:18.266Z,36.45
2018-05-29T17:37:46.859Z,36.34
2018-05-29T17:40:14.415Z,36.15
2018-05-29T17:42:41.992Z,36.11
2018-05-29T17:45:09.571Z,36.01
2018-05-29T17:47:37.125Z,36.03
2018-05-29T17:50:04.713Z,35.86
2018-05-29T17:52:33.161Z,35.70
2018-05-29T17:55:00.707Z,35.68
2018-05-29T17:57:28.282Z,35.51
2018-05-29T17:59:56.708Z,35.39
2018-05-29T18:02:24.424Z,35.15
2018-05-29T18:04:51.979Z,35.18
2018-05-29T18:07:20.371Z,35.17
2018-05-29T18:09:48.798Z,35.19
2018-05-29T18:12:16.707Z,35.18
2018-05-29T18:14:44.731Z,35.16
2018-05-29T18:17:12.933Z,35.20
2018-05-29T18:19:40.471Z,35.18
2018-05-29T18:22:08.700Z,35.08
2018-05-29T18:24:37.003Z,34.98
2018-05-29T18:27:05.162Z,34.78
2018-05-29T18:29:32.702Z,34.37
2018-05-29T18:32:01.131Z,34.22
2018-05-29T18:34:28.988Z,33.79
2018-05-29T18:36:57.170Z,33.14
2018-05-29T18:39:24.729Z,32.47
2018-05-29T18:41:52.628Z,31.91
2018-05-29T18:44:20.217Z,31.33
2018-05-29T18:46:47.922Z,30.84
2018-05-29T18:49:15.664Z,30.38
2018-05-29T18:51:43.911Z,29.94
2018-05-29T18:54:11.468Z,29.57
2018-05-29T18:56:39.018Z,29.20
2018-05-29T18:59:07.187Z,28.88
2018-05-29T19:01:34.762Z,28.53
2018-05-29T19:04:02.378Z,28.20
2018-05-29T19:06:30.510Z,27.91
2018-05-29T19:08:58.055Z,27.66
2018-05-29T19:11:26.177Z,27.46
2018-05-29T19:13:53.987Z,27.25
2018-05-29T19:16:22.505Z,27.08
2018-05-29T19:18:51.056Z,26.87
2018-05-29T19:21:18.611Z,26.69
2018-05-29T19:23:47.200Z,26.52
2018-05-29T19:26:16.068Z,26.34
2018-05-29T19:28:43.662Z,26.18
2018-05-29T19:31:11.205Z,26.01
2018-05-29T19:33:39.456Z,25.87
2018-05-29T19:36:07.101Z,25.75
2018-05-29T19:38:35.199Z,25.63
2018-05-29T19:41:03.191Z,25.49
2018-05-29T19:43:30.794Z,25.38
2018-05-29T19:45:58.429Z,25.28
2018-05-29T19:48:26.008Z,25.20
2018-05-29T19:50:54.672Z,25.09
2018-05-29T19:53:23.029Z,24.96
2018-05-29T19:55:50.607Z,24.85
2018-05-29T19:58:18.172Z,24.75
2018-05-29T20:00:46.843Z,24.63
2018-05-29T20:03:14.457Z,24.48
2018-05-29T20:05:42.663Z,24.40
2018-05-29T20:08:10.849Z,24.29
2018-05-29T20:10:39.090Z,24.19
2018-05-29T20:13:06.652Z,24.07
2018-05-29T20:15:34.683Z,23.98
2018-05-29T20:18:02.497Z,23.90
2018-05-29T20:20:30.048Z,23.83
2018-05-29T20:22:58.458Z,23.70
2018-05-29T20:25:26.443Z,23.60
2018-05-29T20:27:54.224Z,23.52
2018-05-29T20:30:21.748Z,23.42
2018-05-29T20:32:50.037Z,23.31
2018-05-29T20:35:18.573Z,23.21
2018-05-29T20:37:47.175Z,23.12
2018-05-29T20:40:14.752Z,23.00
2018-05-29T20:42:42.344Z,22.87
2018-05-29T20:45:09.910Z,22.80
2018-05-29T20:47:37.455Z,22.70
2018-05-29T20:50:05.074Z,22.59
2018-05-29T20:52:33.341Z,22.49
2018-05-29T20:55:00.891Z,22.38
2018-05-29T20:57:28.447Z,22.28
2018-05-29T20:59:56.612Z,22.15
2018-05-29T21:02:24.364Z,22.04
2018-05-29T21:04:51.943Z,21.92
2018-05-29T21:07:20.090Z,21.85
2018-05-29T21:09:49.583Z,21.78
2018-05-29T21:12:17.804Z,21.71
2018-05-29T21:14:46.542Z,21.63
2018-05-29T21:17:14.080Z,21.56
2018-05-29T21:19:42.285Z,21.52
2018-05-29T21:22:09.882Z,21.42
2018-05-29T21:24:37.694Z,21.36
2018-05-29T21:27:05.656Z,21.25
2018-05-29T21:29:33.252Z,21.17
2018-05-29T21:32:00.788Z,21.09
2018-05-29T21:34:28.915Z,21.01
2018-05-29T21:36:57.017Z,20.94
2018-05-29T21:39:24.676Z,20.87
2018-05-29T21:41:52.470Z,20.79
2018-05-29T21:44:20.080Z,20.72
2018-05-29T21:46:48.087Z,20.65
2018-05-29T21:49:16.325Z,20.56
2018-05-29T21:51:44.360Z,20.47
2018-05-29T21:54:11.971Z,20.37
2018-05-29T21:56:39.608Z,20.29
2018-05-29T21:59:08.266Z,20.20
2018-05-29T22:01:35.819Z,20.13
2018-05-29T22:04:04.117Z,20.05
2018-05-29T22:06:32.910Z,19.98
2018-05-29T22:09:00.529Z,19.91
2018-05-29T22:11:28.578Z,19.86
2018-05-29T22:13:56.188Z,19.77
2018-05-29T22:16:24.799Z,19.70
2018-05-29T22:18:52.491Z,19.66
2018-05-29T22:21:20.099Z,19.61
2018-05-29T22:23:48.451Z,19.54
2018-05-29T22:26:17.122Z,19.46
2018-05-29T22:28:44.714Z,19.40
2018-05-29T22:31:12.309Z,19.32
2018-05-29T22:33:40.575Z,19.25
2018-05-29T22:36:08.288Z,19.20
2018-05-29T22:38:36.381Z,19.16
2018-05-29T22:41:03.983Z,19.12
2018-05-29T22:43:31.548Z,19.04
2018-05-29T22:46:00.339Z,18.99
2018-05-29T22:48:27.999Z,18.95
2018-05-29T22:50:56.473Z,18.89
2018-05-29T22:53:24.886Z,18.83
2018-05-29T22:55:52.544Z,18.75
2018-05-29T22:58:20.245Z,18.71
2018-05-29T23:00:48.673Z,18.66
2018-05-29T23:03:16.588Z,18.61
2018-05-29T23:05:44.744Z,18.57
2018-05-29T23:08:13.221Z,18.52
2018-05-29T23:10:41.398Z,18.45
2018-05-29T23:13:08.958Z,18.39
2018-05-29T23:15:37.135Z,18.35
2018-05-29T23:18:04.744Z,18.29
2018-05-29T23:20:32.529Z,18.24
2018-05-29T23:23:00.173Z,18.18
2018-05-29T23:25:28.745Z,18.11
2018-05-29T23:27:56.433Z,18.01
2018-05-29T23:30:24.200Z,17.91
2018-05-29T23:32:52.474Z,17.84
2018-05-29T23:35:20.050Z,17.80
2018-05-29T23:37:49.001Z,17.74
2018-05-29T23:40:17.154Z,17.70
2018-05-29T23:42:44.736Z,17.67
2018-05-29T23:45:13.013Z,17.64
2018-05-29T23:47:40.585Z,17.61
2018-05-29T23:50:08.121Z,17.58
2018-05-29T23:52:36.365Z,17.55
2018-05-29T23:55:04.337Z,17.46
2018-05-29T23:57:32.316Z,17.41
